Weather at 1620 5th Avenue Helipad

Public forecast

Using degrees Fahrenheit for public forecast. Weather courtesy of forecast.io.

Closest aviation weather report (METAR) to 1620 5th Avenue Helipad

Closest report is San Diego International Airport, 1.6 nm (3.0 km) WNW.

2024/07/16 19:51 (retrieved 49 minutes ago)

KSAN 161951Z 28008KT 10SM FEW015 FEW050 SCT250 23/17 A3001 RMK AO2 SLP162 CB DSNT E T02330167

Closest aviation forecast (TAF) to 1620 5th Avenue Helipad

Closest forecast is San Diego International Airport, 1.6 nm (3.0 km) WNW.

2024/07/16 19:42 Ammendment (retrieved 58 minutes ago)

TAF AMD KSAN 161840Z 1619/1724 28010KT P6SM SCT015 SCT200 FM170300 VRB05KT P6SM OVC012 FM171800 26005KT P6SM SCT015 FM171900 27011KT P6SM SCT015